sensor_id;sensor_type;location;lat;lon;timestamp;temperature;humidity
16392;DHT22;8305;-33.882;151.134;2023-05-07T00:01:24;11.70;99.90
16392;DHT22;8305;-33.882;151.134;2023-05-07T00:03:55;11.60;99.90
16392;DHT22;8305;-33.882;151.134;2023-05-07T00:06:26;11.60;99.90
16392;DHT22;8305;-33.882;151.134;2023-05-07T00:08:58;11.50;99.90
16392;DHT22;8305;-33.882;151.134;2023-05-07T00:11:29;11.50;99.90
16392;DHT22;8305;-33.882;151.134;2023-05-07T00:14:01;11.50;99.90
16392;DHT22;8305;-33.882;151.134;2023-05-07T00:16:34;11.50;99.90
16392;DHT22;8305;-33.882;151.134;2023-05-07T00:19:06;11.50;99.90
16392;DHT22;8305;-33.882;151.134;2023-05-07T00:21:37;11.50;99.90
16392;DHT22;8305;-33.882;151.134;2023-05-07T00:24:08;11.60;99.90
16392;DHT22;8305;-33.882;151.134;2023-05-07T00:26:39;11.50;99.90
16392;DHT22;8305;-33.882;151.134;2023-05-07T00:29:11;11.50;99.90
16392;DHT22;8305;-33.882;151.134;2023-05-07T00:31:44;11.50;99.90
16392;DHT22;8305;-33.882;151.134;2023-05-07T00:34:15;11.50;99.90
16392;DHT22;8305;-33.882;151.134;2023-05-07T00:36:46;11.60;99.90
16392;DHT22;8305;-33.882;151.134;2023-05-07T00:39:17;11.60;99.90
16392;DHT22;8305;-33.882;151.134;2023-05-07T00:41:48;11.60;99.90
16392;DHT22;8305;-33.882;151.134;2023-05-07T00:44:19;11.60;99.90
16392;DHT22;8305;-33.882;151.134;2023-05-07T00:46:52;11.60;99.90
16392;DHT22;8305;-33.882;151.134;2023-05-07T00:49:25;11.60;99.90
16392;DHT22;8305;-33.882;151.134;2023-05-07T00:52:01;11.70;99.90
16392;DHT22;8305;-33.882;151.134;2023-05-07T00:54:33;11.70;99.90
16392;DHT22;8305;-33.882;151.134;2023-05-07T00:57:05;11.80;99.90
16392;DHT22;8305;-33.882;151.134;2023-05-07T00:59:37;11.80;99.90
16392;DHT22;8305;-33.882;151.134;2023-05-07T01:02:10;11.90;99.90
16392;DHT22;8305;-33.882;151.134;2023-05-07T01:04:41;11.90;99.90
16392;DHT22;8305;-33.882;151.134;2023-05-07T01:07:14;11.90;99.90
16392;DHT22;8305;-33.882;151.134;2023-05-07T01:09:45;11.90;99.90
16392;DHT22;8305;-33.882;151.134;2023-05-07T01:12:17;12.00;99.90
16392;DHT22;8305;-33.882;151.134;2023-05-07T01:14:48;12.00;99.90
16392;DHT22;8305;-33.882;151.134;2023-05-07T01:17:21;12.10;99.90
16392;DHT22;8305;-33.882;151.134;2023-05-07T01:19:52;12.20;99.90
16392;DHT22;8305;-33.882;151.134;2023-05-07T01:22:34;12.30;99.90
16392;DHT22;8305;-33.882;151.134;2023-05-07T01:25:07;12.30;99.90
16392;DHT22;8305;-33.882;151.134;2023-05-07T01:27:38;12.40;99.90
16392;DHT22;8305;-33.882;151.134;2023-05-07T01:30:10;12.40;99.90
16392;DHT22;8305;-33.882;151.134;2023-05-07T01:32:43;12.40;99.90
16392;DHT22;8305;-33.882;151.134;2023-05-07T01:35:18;12.40;99.90
16392;DHT22;8305;-33.882;151.134;2023-05-07T01:37:52;12.40;99.90
16392;DHT22;8305;-33.882;151.134;2023-05-07T01:40:24;12.40;99.90
16392;DHT22;8305;-33.882;151.134;2023-05-07T01:42:56;12.40;99.90
16392;DHT22;8305;-33.882;151.134;2023-05-07T01:45:28;12.40;99.90
16392;DHT22;8305;-33.882;151.134;2023-05-07T01:48:00;12.40;99.90
16392;DHT22;8305;-33.882;151.134;2023-05-07T01:50:33;12.50;99.90
16392;DHT22;8305;-33.882;151.134;2023-05-07T01:53:08;12.70;99.90
16392;DHT22;8305;-33.882;151.134;2023-05-07T01:55:39;13.10;99.90
16392;DHT22;8305;-33.882;151.134;2023-05-07T01:58:10;13.40;99.90
16392;DHT22;8305;-33.882;151.134;2023-05-07T02:00:42;13.40;99.90
16392;DHT22;8305;-33.882;151.134;2023-05-07T02:03:13;13.40;99.90
16392;DHT22;8305;-33.882;151.134;2023-05-07T02:05:44;13.30;99.90
16392;DHT22;8305;-33.882;151.134;2023-05-07T02:08:17;13.20;99.90
16392;DHT22;8305;-33.882;151.134;2023-05-07T02:10:48;13.30;99.90
16392;DHT22;8305;-33.882;151.134;2023-05-07T02:13:20;13.50;99.90
16392;DHT22;8305;-33.882;151.134;2023-05-07T02:15:52;13.80;99.90
16392;DHT22;8305;-33.882;151.134;2023-05-07T02:18:23;14.10;99.90
16392;DHT22;8305;-33.882;151.134;2023-05-07T02:20:54;14.30;99.90
16392;DHT22;8305;-33.882;151.134;2023-05-07T02:23:27;14.30;99.90
16392;DHT22;8305;-33.882;151.134;2023-05-07T02:26:00;14.50;99.90
16392;DHT22;8305;-33.882;151.134;2023-05-07T02:28:31;14.70;99.90
16392;DHT22;8305;-33.882;151.134;2023-05-07T02:31:04;14.80;99.90
16392;DHT22;8305;-33.882;151.134;2023-05-07T02:33:35;15.00;99.90
16392;DHT22;8305;-33.882;151.134;2023-05-07T02:36:10;15.00;99.90
16392;DHT22;8305;-33.882;151.134;2023-05-07T02:38:43;15.10;99.90
16392;DHT22;8305;-33.882;151.134;2023-05-07T02:41:14;15.20;99.90
16392;DHT22;8305;-33.882;151.134;2023-05-07T02:43:45;15.30;99.90
16392;DHT22;8305;-33.882;151.134;2023-05-07T02:46:16;15.20;99.90
16392;DHT22;8305;-33.882;151.134;2023-05-07T02:48:47;15.20;99.90
16392;DHT22;8305;-33.882;151.134;2023-05-07T02:51:19;15.00;99.90
16392;DHT22;8305;-33.882;151.134;2023-05-07T02:53:52;14.90;99.90
16392;DHT22;8305;-33.882;151.134;2023-05-07T02:56:25;14.80;99.90
16392;DHT22;8305;-33.882;151.134;2023-05-07T02:58:56;14.80;99.90
16392;DHT22;8305;-33.882;151.134;2023-05-07T03:01:28;14.80;99.90
16392;DHT22;8305;-33.882;151.134;2023-05-07T03:03:59;14.70;99.90
16392;DHT22;8305;-33.882;151.134;2023-05-07T03:06:30;14.40;99.90
16392;DHT22;8305;-33.882;151.134;2023-05-07T03:09:03;14.00;99.90
16392;DHT22;8305;-33.882;151.134;2023-05-07T03:11:35;13.60;99.90
16392;DHT22;8305;-33.882;151.134;2023-05-07T03:14:06;13.10;99.90
16392;DHT22;8305;-33.882;151.134;2023-05-07T03:16:37;12.90;99.90
16392;DHT22;8305;-33.882;151.134;2023-05-07T03:19:09;12.60;99.90
16392;DHT22;8305;-33.882;151.134;2023-05-07T03:21:40;12.50;99.90
16392;DHT22;8305;-33.882;151.134;2023-05-07T03:24:13;12.40;99.90
16392;DHT22;8305;-33.882;151.134;2023-05-07T03:26:45;12.40;99.90
16392;DHT22;8305;-33.882;151.134;2023-05-07T03:29:16;12.60;99.90
16392;DHT22;8305;-33.882;151.134;2023-05-07T03:31:47;12.90;99.90
16392;DHT22;8305;-33.882;151.134;2023-05-07T03:34:18;13.20;99.90
16392;DHT22;8305;-33.882;151.134;2023-05-07T03:36:50;13.30;99.90
16392;DHT22;8305;-33.882;151.134;2023-05-07T03:39:23;13.40;99.90
16392;DHT22;8305;-33.882;151.134;2023-05-07T03:41:55;13.40;99.90
16392;DHT22;8305;-33.882;151.134;2023-05-07T03:44:26;13.40;99.90
16392;DHT22;8305;-33.882;151.134;2023-05-07T03:46:58;13.60;99.90
16392;DHT22;8305;-33.882;151.134;2023-05-07T03:49:29;13.70;99.90
16392;DHT22;8305;-33.882;151.134;2023-05-07T03:52:00;13.90;99.90
16392;DHT22;8305;-33.882;151.134;2023-05-07T03:54:33;14.10;99.90
16392;DHT22;8305;-33.882;151.134;2023-05-07T03:57:04;14.20;99.90
16392;DHT22;8305;-33.882;151.134;2023-05-07T03:59:35;14.20;99.90
16392;DHT22;8305;-33.882;151.134;2023-05-07T04:02:06;14.40;99.90
16392;DHT22;8305;-33.882;151.134;2023-05-07T04:04:37;14.60;99.90
16392;DHT22;8305;-33.882;151.134;2023-05-07T04:07:09;14.80;99.90
16392;DHT22;8305;-33.882;151.134;2023-05-07T04:09:42;15.00;99.90
16392;DHT22;8305;-33.882;151.134;2023-05-07T04:12:13;15.20;99.90
16392;DHT22;8305;-33.882;151.134;2023-05-07T04:14:44;15.30;99.90
16392;DHT22;8305;-33.882;151.134;2023-05-07T04:17:15;15.40;99.90
16392;DHT22;8305;-33.882;151.134;2023-05-07T04:19:46;15.40;99.90
16392;DHT22;8305;-33.882;151.134;2023-05-07T04:22:17;15.50;99.90
16392;DHT22;8305;-33.882;151.134;2023-05-07T04:24:51;15.70;99.90
16392;DHT22;8305;-33.882;151.134;2023-05-07T04:27:22;15.80;99.90
16392;DHT22;8305;-33.882;151.134;2023-05-07T04:29:53;15.80;99.90
16392;DHT22;8305;-33.882;151.134;2023-05-07T04:32:24;15.70;99.90
16392;DHT22;8305;-33.882;151.134;2023-05-07T04:34:57;15.70;99.90
16392;DHT22;8305;-33.882;151.134;2023-05-07T04:37:28;15.70;99.90
16392;DHT22;8305;-33.882;151.134;2023-05-07T04:40:01;15.80;99.90
16392;DHT22;8305;-33.882;151.134;2023-05-07T04:42:33;15.90;99.90
16392;DHT22;8305;-33.882;151.134;2023-05-07T04:45:04;15.90;99.90
16392;DHT22;8305;-33.882;151.134;2023-05-07T04:47:36;16.00;99.90
16392;DHT22;8305;-33.882;151.134;2023-05-07T04:50:08;16.00;99.90
16392;DHT22;8305;-33.882;151.134;2023-05-07T04:52:40;16.00;99.90
16392;DHT22;8305;-33.882;151.134;2023-05-07T04:55:13;16.00;99.90
16392;DHT22;8305;-33.882;151.134;2023-05-07T04:57:44;16.00;99.90
16392;DHT22;8305;-33.882;151.134;2023-05-07T05:00:15;16.00;99.90
16392;DHT22;8305;-33.882;151.134;2023-05-07T05:02:47;16.00;99.90
16392;DHT22;8305;-33.882;151.134;2023-05-07T05:05:18;16.00;99.90
16392;DHT22;8305;-33.882;151.134;2023-05-07T05:07:50;16.10;99.90
16392;DHT22;8305;-33.882;151.134;2023-05-07T05:10:23;16.10;99.90
16392;DHT22;8305;-33.882;151.134;2023-05-07T05:12:55;16.00;99.90
16392;DHT22;8305;-33.882;151.134;2023-05-07T05:15:26;16.00;99.90
16392;DHT22;8305;-33.882;151.134;2023-05-07T05:17:57;16.10;99.90
16392;DHT22;8305;-33.882;151.134;2023-05-07T05:20:28;16.10;99.90
16392;DHT22;8305;-33.882;151.134;2023-05-07T05:22:59;16.10;99.90
16392;DHT22;8305;-33.882;151.134;2023-05-07T05:25:32;16.10;99.90
16392;DHT22;8305;-33.882;151.134;2023-05-07T05:28:03;16.00;99.90
16392;DHT22;8305;-33.882;151.134;2023-05-07T05:30:34;15.90;99.90
16392;DHT22;8305;-33.882;151.134;2023-05-07T05:33:06;15.90;99.90
16392;DHT22;8305;-33.882;151.134;2023-05-07T05:35:37;15.80;99.90
16392;DHT22;8305;-33.882;151.134;2023-05-07T05:38:08;15.80;99.90
16392;DHT22;8305;-33.882;151.134;2023-05-07T05:40:41;15.60;99.90
16392;DHT22;8305;-33.882;151.134;2023-05-07T05:43:13;15.60;99.90
16392;DHT22;8305;-33.882;151.134;2023-05-07T05:45:45;15.50;99.90
16392;DHT22;8305;-33.882;151.134;2023-05-07T05:48:16;15.50;99.90
16392;DHT22;8305;-33.882;151.134;2023-05-07T05:50:47;15.70;99.90
16392;DHT22;8305;-33.882;151.134;2023-05-07T05:53:18;15.70;99.90
16392;DHT22;8305;-33.882;151.134;2023-05-07T05:55:53;15.70;99.90
16392;DHT22;8305;-33.882;151.134;2023-05-07T05:58:25;15.80;99.90
16392;DHT22;8305;-33.882;151.134;2023-05-07T06:00:58;15.70;99.90
16392;DHT22;8305;-33.882;151.134;2023-05-07T06:03:30;15.60;99.90
16392;DHT22;8305;-33.882;151.134;2023-05-07T06:06:03;15.60;99.90
16392;DHT22;8305;-33.882;151.134;2023-05-07T06:08:34;15.60;99.90
16392;DHT22;8305;-33.882;151.134;2023-05-07T06:11:08;15.60;99.90
16392;DHT22;8305;-33.882;151.134;2023-05-07T06:13:39;15.50;99.90
16392;DHT22;8305;-33.882;151.134;2023-05-07T06:16:11;15.40;99.90
16392;DHT22;8305;-33.882;151.134;2023-05-07T06:18:42;15.30;99.90
16392;DHT22;8305;-33.882;151.134;2023-05-07T06:21:14;15.10;99.90
16392;DHT22;8305;-33.882;151.134;2023-05-07T06:23:45;15.10;99.90
16392;DHT22;8305;-33.882;151.134;2023-05-07T06:26:19;15.00;99.90
16392;DHT22;8305;-33.882;151.134;2023-05-07T06:28:51;14.90;99.90
16392;DHT22;8305;-33.882;151.134;2023-05-07T06:31:22;14.80;99.90
16392;DHT22;8305;-33.882;151.134;2023-05-07T06:33:53;14.70;99.90
16392;DHT22;8305;-33.882;151.134;2023-05-07T06:36:31;14.60;99.90
16392;DHT22;8305;-33.882;151.134;2023-05-07T06:39:06;14.50;99.90
16392;DHT22;8305;-33.882;151.134;2023-05-07T06:41:42;14.40;99.90
16392;DHT22;8305;-33.882;151.134;2023-05-07T06:44:14;14.30;99.90
16392;DHT22;8305;-33.882;151.134;2023-05-07T06:47:00;14.30;99.90
16392;DHT22;8305;-33.882;151.134;2023-05-07T06:49:33;14.20;99.90
16392;DHT22;8305;-33.882;151.134;2023-05-07T06:52:04;14.10;99.90
16392;DHT22;8305;-33.882;151.134;2023-05-07T06:57:31;14.00;99.90
16392;DHT22;8305;-33.882;151.134;2023-05-07T07:00:03;13.90;99.90
16392;DHT22;8305;-33.882;151.134;2023-05-07T07:02:36;13.80;99.90
16392;DHT22;8305;-33.882;151.134;2023-05-07T07:05:07;13.70;99.90
16392;DHT22;8305;-33.882;151.134;2023-05-07T07:07:39;13.60;99.90
16392;DHT22;8305;-33.882;151.134;2023-05-07T07:10:10;13.60;99.90
16392;DHT22;8305;-33.882;151.134;2023-05-07T07:12:43;13.50;99.90
16392;DHT22;8305;-33.882;151.134;2023-05-07T07:15:15;13.40;99.90
16392;DHT22;8305;-33.882;151.134;2023-05-07T07:17:46;13.40;99.90
16392;DHT22;8305;-33.882;151.134;2023-05-07T07:20:17;13.30;99.90
16392;DHT22;8305;-33.882;151.134;2023-05-07T07:22:48;13.30;99.90
16392;DHT22;8305;-33.882;151.134;2023-05-07T07:25:19;13.20;99.90
16392;DHT22;8305;-33.882;151.134;2023-05-07T07:27:53;13.10;99.90
16392;DHT22;8305;-33.882;151.134;2023-05-07T07:30:24;13.00;99.90
16392;DHT22;8305;-33.882;151.134;2023-05-07T07:32:56;12.90;99.90
16392;DHT22;8305;-33.882;151.134;2023-05-07T07:35:30;12.90;99.90
16392;DHT22;8305;-33.882;151.134;2023-05-07T07:38:01;12.80;99.90
16392;DHT22;8305;-33.882;151.134;2023-05-07T07:40:33;12.70;99.90
16392;DHT22;8305;-33.882;151.134;2023-05-07T07:43:07;12.70;99.90
16392;DHT22;8305;-33.882;151.134;2023-05-07T07:45:38;12.70;99.90
16392;DHT22;8305;-33.882;151.134;2023-05-07T07:48:09;12.60;99.90
16392;DHT22;8305;-33.882;151.134;2023-05-07T07:50:40;12.50;99.90
16392;DHT22;8305;-33.882;151.134;2023-05-07T07:53:11;12.50;99.90
16392;DHT22;8305;-33.882;151.134;2023-05-07T07:55:42;12.40;99.90
16392;DHT22;8305;-33.882;151.134;2023-05-07T07:58:15;12.40;99.90
16392;DHT22;8305;-33.882;151.134;2023-05-07T08:00:46;12.40;99.90
16392;DHT22;8305;-33.882;151.134;2023-05-07T08:03:17;12.40;99.90
16392;DHT22;8305;-33.882;151.134;2023-05-07T08:05:48;12.30;99.90
16392;DHT22;8305;-33.882;151.134;2023-05-07T08:08:19;12.30;99.90
16392;DHT22;8305;-33.882;151.134;2023-05-07T08:10:51;12.30;99.90
16392;DHT22;8305;-33.882;151.134;2023-05-07T08:13:24;12.20;99.90
16392;DHT22;8305;-33.882;151.134;2023-05-07T08:15:55;12.20;99.90
16392;DHT22;8305;-33.882;151.134;2023-05-07T08:18:26;12.20;99.90
16392;DHT22;8305;-33.882;151.134;2023-05-07T08:20:58;12.20;99.90
16392;DHT22;8305;-33.882;151.134;2023-05-07T08:23:29;12.10;99.90
16392;DHT22;8305;-33.882;151.134;2023-05-07T08:26:02;12.10;99.90
16392;DHT22;8305;-33.882;151.134;2023-05-07T08:28:35;12.10;99.90
16392;DHT22;8305;-33.882;151.134;2023-05-07T08:31:06;12.10;99.90
16392;DHT22;8305;-33.882;151.134;2023-05-07T08:33:37;12.00;99.90
16392;DHT22;8305;-33.882;151.134;2023-05-07T08:36:08;12.00;99.90
16392;DHT22;8305;-33.882;151.134;2023-05-07T08:38:39;12.00;99.90
16392;DHT22;8305;-33.882;151.134;2023-05-07T08:41:13;12.00;99.90
16392;DHT22;8305;-33.882;151.134;2023-05-07T08:43:48;11.90;99.90
16392;DHT22;8305;-33.882;151.134;2023-05-07T08:46:20;11.90;99.90
16392;DHT22;8305;-33.882;151.134;2023-05-07T08:48:52;11.90;99.90
16392;DHT22;8305;-33.882;151.134;2023-05-07T08:51:23;11.90;99.90
16392;DHT22;8305;-33.882;151.134;2023-05-07T08:53:55;12.00;99.90
16392;DHT22;8305;-33.882;151.134;2023-05-07T08:56:26;12.00;99.90
16392;DHT22;8305;-33.882;151.134;2023-05-07T08:58:59;11.90;99.90
16392;DHT22;8305;-33.882;151.134;2023-05-07T09:01:30;11.90;99.90
16392;DHT22;8305;-33.882;151.134;2023-05-07T09:04:03;11.90;99.90
16392;DHT22;8305;-33.882;151.134;2023-05-07T09:06:34;11.90;99.90
16392;DHT22;8305;-33.882;151.134;2023-05-07T09:09:06;11.90;99.90
16392;DHT22;8305;-33.882;151.134;2023-05-07T09:11:37;11.80;99.90
16392;DHT22;8305;-33.882;151.134;2023-05-07T09:14:10;11.80;99.90
16392;DHT22;8305;-33.882;151.134;2023-05-07T09:16:41;11.80;99.90
16392;DHT22;8305;-33.882;151.134;2023-05-07T09:19:12;11.80;99.90
16392;DHT22;8305;-33.882;151.134;2023-05-07T09:21:43;11.80;99.90
16392;DHT22;8305;-33.882;151.134;2023-05-07T09:24:16;11.70;99.90
16392;DHT22;8305;-33.882;151.134;2023-05-07T09:26:47;11.80;99.90
16392;DHT22;8305;-33.882;151.134;2023-05-07T09:29:20;11.80;99.90
16392;DHT22;8305;-33.882;151.134;2023-05-07T09:31:51;11.80;99.90
16392;DHT22;8305;-33.882;151.134;2023-05-07T09:34:23;11.90;99.90
16392;DHT22;8305;-33.882;151.134;2023-05-07T09:36:54;11.80;99.90
16392;DHT22;8305;-33.882;151.134;2023-05-07T09:39:26;11.80;99.90
16392;DHT22;8305;-33.882;151.134;2023-05-07T09:42:09;11.80;99.90
16392;DHT22;8305;-33.882;151.134;2023-05-07T09:44:43;11.80;99.90
16392;DHT22;8305;-33.882;151.134;2023-05-07T09:47:18;11.70;99.90
16392;DHT22;8305;-33.882;151.134;2023-05-07T09:49:50;11.70;99.90
16392;DHT22;8305;-33.882;151.134;2023-05-07T09:52:24;11.70;99.90
16392;DHT22;8305;-33.882;151.134;2023-05-07T09:55:02;11.70;99.90
16392;DHT22;8305;-33.882;151.134;2023-05-07T09:57:34;11.70;99.90
16392;DHT22;8305;-33.882;151.134;2023-05-07T10:00:10;11.60;99.90
16392;DHT22;8305;-33.882;151.134;2023-05-07T10:02:42;11.50;99.90
16392;DHT22;8305;-33.882;151.134;2023-05-07T10:05:16;11.50;99.90
16392;DHT22;8305;-33.882;151.134;2023-05-07T10:07:48;11.40;99.90
16392;DHT22;8305;-33.882;151.134;2023-05-07T10:10:19;11.40;99.90
16392;DHT22;8305;-33.882;151.134;2023-05-07T10:12:51;11.40;99.90
16392;DHT22;8305;-33.882;151.134;2023-05-07T10:15:25;11.30;99.90
16392;DHT22;8305;-33.882;151.134;2023-05-07T10:17:57;11.30;99.90
16392;DHT22;8305;-33.882;151.134;2023-05-07T10:20:28;11.30;99.90
16392;DHT22;8305;-33.882;151.134;2023-05-07T10:23:00;11.30;99.90
16392;DHT22;8305;-33.882;151.134;2023-05-07T10:25:34;11.20;99.90
16392;DHT22;8305;-33.882;151.134;2023-05-07T10:28:07;11.20;99.90
16392;DHT22;8305;-33.882;151.134;2023-05-07T10:30:50;11.20;99.90
16392;DHT22;8305;-33.882;151.134;2023-05-07T10:33:27;11.20;99.90
16392;DHT22;8305;-33.882;151.134;2023-05-07T10:36:00;11.10;99.90
16392;DHT22;8305;-33.882;151.134;2023-05-07T10:38:32;11.10;99.90
16392;DHT22;8305;-33.882;151.134;2023-05-07T10:41:03;11.00;99.90
16392;DHT22;8305;-33.882;151.134;2023-05-07T10:43:42;11.00;99.90
16392;DHT22;8305;-33.882;151.134;2023-05-07T10:46:16;11.00;99.90
16392;DHT22;8305;-33.882;151.134;2023-05-07T10:49:12;11.00;99.90
16392;DHT22;8305;-33.882;151.134;2023-05-07T10:51:44;11.00;99.90
16392;DHT22;8305;-33.882;151.134;2023-05-07T10:54:24;11.00;99.90
16392;DHT22;8305;-33.882;151.134;2023-05-07T10:56:55;11.00;99.90
16392;DHT22;8305;-33.882;151.134;2023-05-07T10:59:35;10.90;99.90
16392;DHT22;8305;-33.882;151.134;2023-05-07T11:02:12;10.90;99.90
16392;DHT22;8305;-33.882;151.134;2023-05-07T11:04:43;10.90;99.90
16392;DHT22;8305;-33.882;151.134;2023-05-07T11:07:28;10.90;99.90
16392;DHT22;8305;-33.882;151.134;2023-05-07T11:10:03;10.90;99.90
16392;DHT22;8305;-33.882;151.134;2023-05-07T11:13:04;10.80;99.90
16392;DHT22;8305;-33.882;151.134;2023-05-07T11:15:40;10.80;99.90
16392;DHT22;8305;-33.882;151.134;2023-05-07T11:18:15;10.80;99.90
16392;DHT22;8305;-33.882;151.134;2023-05-07T11:20:59;10.80;99.90
16392;DHT22;8305;-33.882;151.134;2023-05-07T11:23:57;10.80;99.90
16392;DHT22;8305;-33.882;151.134;2023-05-07T11:26:29;10.70;99.90
16392;DHT22;8305;-33.882;151.134;2023-05-07T11:29:01;10.60;99.90
16392;DHT22;8305;-33.882;151.134;2023-05-07T11:31:32;10.30;99.90
16392;DHT22;8305;-33.882;151.134;2023-05-07T11:34:06;10.10;99.90
16392;DHT22;8305;-33.882;151.134;2023-05-07T11:36:42;9.90;99.90
16392;DHT22;8305;-33.882;151.134;2023-05-07T11:39:27;9.80;99.90
16392;DHT22;8305;-33.882;151.134;2023-05-07T11:41:58;9.70;99.90
16392;DHT22;8305;-33.882;151.134;2023-05-07T11:44:42;9.60;99.90
16392;DHT22;8305;-33.882;151.134;2023-05-07T11:47:19;9.50;99.90
16392;DHT22;8305;-33.882;151.134;2023-05-07T11:49:53;9.30;99.90
16392;DHT22;8305;-33.882;151.134;2023-05-07T11:52:25;9.20;99.90
16392;DHT22;8305;-33.882;151.134;2023-05-07T11:54:56;9.10;99.90
16392;DHT22;8305;-33.882;151.134;2023-05-07T11:57:28;9.00;99.90
16392;DHT22;8305;-33.882;151.134;2023-05-07T12:00:00;8.90;99.90
16392;DHT22;8305;-33.882;151.134;2023-05-07T12:02:32;8.70;99.90
16392;DHT22;8305;-33.882;151.134;2023-05-07T12:05:05;8.60;99.90
16392;DHT22;8305;-33.882;151.134;2023-05-07T12:07:36;8.50;99.90
16392;DHT22;8305;-33.882;151.134;2023-05-07T12:10:08;8.30;99.90
16392;DHT22;8305;-33.882;151.134;2023-05-07T12:12:45;8.10;99.90
16392;DHT22;8305;-33.882;151.134;2023-05-07T12:15:17;8.00;99.90
16392;DHT22;8305;-33.882;151.134;2023-05-07T12:17:53;7.90;99.90
16392;DHT22;8305;-33.882;151.134;2023-05-07T12:20:26;7.90;99.90
16392;DHT22;8305;-33.882;151.134;2023-05-07T12:22:57;7.90;99.90
16392;DHT22;8305;-33.882;151.134;2023-05-07T12:25:31;7.90;99.90
16392;DHT22;8305;-33.882;151.134;2023-05-07T12:28:02;7.80;99.90
16392;DHT22;8305;-33.882;151.134;2023-05-07T12:30:37;7.80;99.90
16392;DHT22;8305;-33.882;151.134;2023-05-07T12:33:08;7.90;99.90
16392;DHT22;8305;-33.882;151.134;2023-05-07T12:35:42;7.90;99.90
16392;DHT22;8305;-33.882;151.134;2023-05-07T12:38:14;7.80;99.90
16392;DHT22;8305;-33.882;151.134;2023-05-07T12:40:46;7.90;99.90
16392;DHT22;8305;-33.882;151.134;2023-05-07T12:43:19;7.80;99.90
16392;DHT22;8305;-33.882;151.134;2023-05-07T12:45:51;7.80;99.90
16392;DHT22;8305;-33.882;151.134;2023-05-07T12:48:25;7.80;99.90
16392;DHT22;8305;-33.882;151.134;2023-05-07T12:50:59;7.80;99.90
16392;DHT22;8305;-33.882;151.134;2023-05-07T12:53:32;7.90;99.90
16392;DHT22;8305;-33.882;151.134;2023-05-07T12:56:08;7.90;99.90
16392;DHT22;8305;-33.882;151.134;2023-05-07T12:58:39;7.90;99.90
16392;DHT22;8305;-33.882;151.134;2023-05-07T13:01:10;7.90;99.90
16392;DHT22;8305;-33.882;151.134;2023-05-07T13:03:49;7.90;99.90
16392;DHT22;8305;-33.882;151.134;2023-05-07T13:06:22;8.00;99.90
16392;DHT22;8305;-33.882;151.134;2023-05-07T13:08:54;8.00;99.90
16392;DHT22;8305;-33.882;151.134;2023-05-07T13:11:25;8.00;99.90
16392;DHT22;8305;-33.882;151.134;2023-05-07T13:13:56;8.10;99.90
16392;DHT22;8305;-33.882;151.134;2023-05-07T13:16:27;8.10;99.90
16392;DHT22;8305;-33.882;151.134;2023-05-07T13:18:58;8.10;99.90
16392;DHT22;8305;-33.882;151.134;2023-05-07T13:21:31;8.10;99.90
16392;DHT22;8305;-33.882;151.134;2023-05-07T13:24:03;8.10;99.90
16392;DHT22;8305;-33.882;151.134;2023-05-07T13:26:34;8.10;99.90
16392;DHT22;8305;-33.882;151.134;2023-05-07T13:29:05;8.10;99.90
16392;DHT22;8305;-33.882;151.134;2023-05-07T13:31:36;8.10;99.90
16392;DHT22;8305;-33.882;151.134;2023-05-07T13:34:10;8.20;99.90
16392;DHT22;8305;-33.882;151.134;2023-05-07T13:36:43;8.20;99.90
16392;DHT22;8305;-33.882;151.134;2023-05-07T13:39:14;8.20;99.90
16392;DHT22;8305;-33.882;151.134;2023-05-07T13:41:45;8.30;99.90
16392;DHT22;8305;-33.882;151.134;2023-05-07T13:44:17;8.30;99.90
16392;DHT22;8305;-33.882;151.134;2023-05-07T13:46:48;8.30;99.90
16392;DHT22;8305;-33.882;151.134;2023-05-07T13:49:19;8.40;99.90
16392;DHT22;8305;-33.882;151.134;2023-05-07T13:51:52;8.40;99.90
16392;DHT22;8305;-33.882;151.134;2023-05-07T13:54:24;8.30;99.90
16392;DHT22;8305;-33.882;151.134;2023-05-07T13:56:55;8.40;99.90
16392;DHT22;8305;-33.882;151.134;2023-05-07T13:59:26;8.50;99.90
16392;DHT22;8305;-33.882;151.134;2023-05-07T14:01:57;8.50;99.90
16392;DHT22;8305;-33.882;151.134;2023-05-07T14:04:30;8.60;99.90
16392;DHT22;8305;-33.882;151.134;2023-05-07T14:07:03;8.60;99.90
16392;DHT22;8305;-33.882;151.134;2023-05-07T14:09:34;8.70;99.90
16392;DHT22;8305;-33.882;151.134;2023-05-07T14:12:06;8.70;99.90
16392;DHT22;8305;-33.882;151.134;2023-05-07T14:14:37;8.70;99.90
16392;DHT22;8305;-33.882;151.134;2023-05-07T14:17:08;8.80;99.90
16392;DHT22;8305;-33.882;151.134;2023-05-07T14:19:39;8.70;99.90
16392;DHT22;8305;-33.882;151.134;2023-05-07T14:22:13;8.90;99.90
16392;DHT22;8305;-33.882;151.134;2023-05-07T14:24:44;8.90;99.90
16392;DHT22;8305;-33.882;151.134;2023-05-07T14:27:15;8.90;99.90
16392;DHT22;8305;-33.882;151.134;2023-05-07T14:29:47;8.90;99.90
16392;DHT22;8305;-33.882;151.134;2023-05-07T14:32:19;9.00;99.90
16392;DHT22;8305;-33.882;151.134;2023-05-07T14:34:50;9.00;99.90
16392;DHT22;8305;-33.882;151.134;2023-05-07T14:37:23;9.10;99.90
16392;DHT22;8305;-33.882;151.134;2023-05-07T14:39:54;9.10;99.90
16392;DHT22;8305;-33.882;151.134;2023-05-07T14:42:25;9.10;99.90
16392;DHT22;8305;-33.882;151.134;2023-05-07T14:44:56;9.10;99.90
16392;DHT22;8305;-33.882;151.134;2023-05-07T14:47:27;9.20;99.90
16392;DHT22;8305;-33.882;151.134;2023-05-07T14:49:59;9.30;99.90
16392;DHT22;8305;-33.882;151.134;2023-05-07T14:52:32;9.30;99.90
16392;DHT22;8305;-33.882;151.134;2023-05-07T14:55:03;9.40;99.90
16392;DHT22;8305;-33.882;151.134;2023-05-07T14:57:34;9.50;99.90
16392;DHT22;8305;-33.882;151.134;2023-05-07T15:00:06;9.50;99.90
16392;DHT22;8305;-33.882;151.134;2023-05-07T15:02:38;9.60;99.90
16392;DHT22;8305;-33.882;151.134;2023-05-07T15:05:09;9.60;99.90
16392;DHT22;8305;-33.882;151.134;2023-05-07T15:07:42;9.70;99.90
16392;DHT22;8305;-33.882;151.134;2023-05-07T15:10:13;9.80;99.90
16392;DHT22;8305;-33.882;151.134;2023-05-07T15:12:44;9.90;99.90
16392;DHT22;8305;-33.882;151.134;2023-05-07T15:15:15;9.90;99.90
16392;DHT22;8305;-33.882;151.134;2023-05-07T15:17:46;10.00;99.90
16392;DHT22;8305;-33.882;151.134;2023-05-07T15:20:18;10.10;99.90
16392;DHT22;8305;-33.882;151.134;2023-05-07T15:22:51;10.10;99.90
16392;DHT22;8305;-33.882;151.134;2023-05-07T15:25:22;10.20;99.90
16392;DHT22;8305;-33.882;151.134;2023-05-07T15:27:53;10.30;99.90
16392;DHT22;8305;-33.882;151.134;2023-05-07T15:30:24;10.30;99.90
16392;DHT22;8305;-33.882;151.134;2023-05-07T15:32:55;10.40;99.90
16392;DHT22;8305;-33.882;151.134;2023-05-07T15:35:26;10.50;99.90
16392;DHT22;8305;-33.882;151.134;2023-05-07T15:38:00;10.60;99.90
16392;DHT22;8305;-33.882;151.134;2023-05-07T15:40:31;10.70;99.90